ΕΜΥ, Εθνική Μετεωρολογική Υπηρεσία - Δελτία Καιρού, Προγνώσεις

ΑΕΡΟΝΑΥΤΙΛΙΑ

GREEK AIRPORTS CODES

LGEL 211950Z VRB01KT 9999 FEW020 BKN030 11/06 Q1013=

EUROPEAN AIRPORTS CODES

TAF LGEL 211700Z 2118/2218 30005KT 9999 FEW020 SCT070 BECMG 2119/2121 36008KT FEW010 BKN018 BKN070 PROB30 TEMPO 2200/2206 36010G20KT 5000 RA=